Time;durP1;ratioP1;P1;durP2;ratioP2;P2;SDS_P1;SDS_P2;PMS_P1;PMS_P2;Temp;Humidity;BMP_temperature;BMP_pressure;BME280_temperature;BME280_humidity;BME280_pressure;Samples;Min_cycle;Max_cycle;Signal;HPM_P1;HPM_P2
2022/11/28 00:01:54;;;;;;;6.90;3.97;;;6.60;99.90;;;;;;5064581;28;20393;-81
2022/11/28 00:04:20;;;;;;;4.28;3.08;;;6.50;99.90;;;;;;5062085;28;20505;-82
2022/11/28 00:06:49;;;;;;;4.38;3.35;;;6.50;99.90;;;;;;5065054;28;20024;-78
2022/11/28 00:09:16;;;;;;;4.95;3.30;;;6.60;99.90;;;;;;5061778;28;20039;-82
2022/11/28 00:11:44;;;;;;;3.83;2.88;;;6.60;99.90;;;;;;5063159;28;20725;-80
2022/11/28 00:14:10;;;;;;;5.03;3.58;;;6.60;99.90;;;;;;5061469;28;20029;-79
2022/11/28 00:16:36;;;;;;;5.55;3.15;;;6.60;99.90;;;;;;5061862;28;20024;-78
2022/11/28 00:19:03;;;;;;;4.60;3.10;;;6.60;99.90;;;;;;5059912;28;20389;-77
2022/11/28 00:21:30;;;;;;;4.60;2.90;;;6.60;99.90;;;;;;5064999;28;20051;-78
2022/11/28 00:23:56;;;;;;;5.72;2.78;;;6.60;99.90;;;;;;5060319;28;20029;-77
2022/11/28 00:26:25;;;;;;;3.83;2.75;;;6.60;99.90;;;;;;5064677;28;20089;-78
2022/11/28 00:28:51;;;;;;;3.70;3.17;;;6.70;99.90;;;;;;5063192;28;20033;-78
2022/11/28 00:31:20;;;;;;;9.60;3.50;;;6.70;99.90;;;;;;5059261;28;20047;-77
2022/11/28 00:33:46;;;;;;;5.88;3.20;;;6.60;99.90;;;;;;5062680;28;20028;-77
2022/11/28 00:36:12;;;;;;;4.40;2.53;;;6.60;99.90;;;;;;5058405;28;20058;-78
2022/11/28 00:38:38;;;;;;;5.45;3.53;;;6.60;99.90;;;;;;5054785;28;20480;-77
2022/11/28 00:41:12;;;;;;;8.57;3.63;;;6.70;99.90;;;;;;5055113;28;20075;-77
2022/11/28 00:43:39;;;;;;;5.75;3.25;;;6.70;99.90;;;;;;5062861;28;20039;-78
2022/11/28 00:46:06;;;;;;;8.05;3.08;;;6.60;99.90;;;;;;5065375;28;20028;-78
2022/11/28 00:48:33;;;;;;;4.75;2.72;;;6.60;99.90;;;;;;5058838;28;20095;-77
2022/11/28 00:51:11;;;;;;;4.20;2.60;;;6.50;99.90;;;;;;5063674;28;20028;-77
2022/11/28 00:53:39;;;;;;;8.80;2.78;;;6.50;99.90;;;;;;5066394;28;20028;-77
2022/11/28 00:56:05;;;;;;;4.57;3.40;;;6.50;99.90;;;;;;5065381;28;20055;-78
2022/11/28 00:58:33;;;;;;;5.75;3.42;;;6.50;99.90;;;;;;5063968;28;20070;-78
2022/11/28 01:00:59;;;;;;;3.50;3.10;;;6.50;99.90;;;;;;5062731;28;20521;-78
2022/11/28 01:03:25;;;;;;;4.63;2.75;;;6.50;99.90;;;;;;5055783;28;20025;-78
2022/11/28 01:05:50;;;;;;;5.88;3.30;;;6.40;99.90;;;;;;5057975;28;20082;-78
2022/11/28 01:08:16;;;;;;;6.28;3.25;;;6.40;99.90;;;;;;5062953;28;20626;-78
2022/11/28 01:10:44;;;;;;;3.33;3.03;;;6.50;99.90;;;;;;5062590;28;20421;-78
2022/11/28 01:13:10;;;;;;;5.50;3.13;;;6.50;99.90;;;;;;5060985;28;20123;-78
2022/11/28 01:15:39;;;;;;;3.08;2.78;;;6.50;99.90;;;;;;5058951;28;20025;-78
2022/11/28 01:18:05;;;;;;;4.43;3.17;;;6.50;99.90;;;;;;5065636;28;20055;-78
2022/11/28 01:20:31;;;;;;;8.95;3.75;;;6.50;99.90;;;;;;5062440;28;20037;-80
2022/11/28 01:22:56;;;;;;;6.22;3.53;;;6.50;99.90;;;;;;5064501;28;20081;-77
2022/11/28 01:25:22;;;;;;;5.35;4.20;;;6.50;99.90;;;;;;5060541;28;20029;-79
2022/11/28 01:27:48;;;;;;;6.03;4.00;;;6.50;99.90;;;;;;5063062;28;20033;-78
2022/11/28 01:30:13;;;;;;;6.95;4.80;;;6.50;99.90;;;;;;5061050;28;20028;-78
2022/11/28 01:32:39;;;;;;;6.03;4.13;;;6.50;99.90;;;;;;5059945;28;20025;-78
2022/11/28 01:35:05;;;;;;;6.78;4.72;;;6.40;99.90;;;;;;5059345;28;20028;-78
2022/11/28 01:37:31;;;;;;;7.45;4.68;;;6.40;99.90;;;;;;5064780;28;20126;-77
2022/11/28 01:39:56;;;;;;;7.00;4.30;;;6.30;99.90;;;;;;5061061;28;20028;-80
2022/11/28 01:42:22;;;;;;;6.57;4.82;;;6.30;99.90;;;;;;5056825;28;20158;-78
2022/11/28 01:44:48;;;;;;;6.28;4.28;;;6.20;99.90;;;;;;5060380;28;20134;-78
2022/11/28 01:47:27;;;;;;;6.88;4.78;;;6.20;99.90;;;;;;5056880;28;20444;-76
2022/11/28 01:49:54;;;;;;;11.35;5.25;;;6.20;99.90;;;;;;5061421;28;20055;-78
2022/11/28 01:52:20;;;;;;;7.22;4.32;;;6.20;99.90;;;;;;5059386;28;20032;-79
2022/11/28 01:54:52;;;;;;;5.60;4.00;;;6.20;99.90;;;;;;5064115;28;20036;-77
2022/11/28 01:57:21;;;;;;;6.40;4.40;;;6.20;99.90;;;;;;5057521;28;20049;-77
2022/11/28 01:59:53;;;;;;;6.63;4.07;;;6.20;99.90;;;;;;5057327;28;20039;-77
2022/11/28 02:02:37;;;;;;;6.07;3.60;;;6.20;99.90;;;;;;5060468;28;20025;-77
2022/11/28 02:05:03;;;;;;;5.25;3.40;;;6.20;99.90;;;;;;5056552;28;20389;-77
2022/11/28 02:07:29;;;;;;;9.43;3.75;;;6.20;99.90;;;;;;5058925;28;20127;-77
2022/11/28 02:09:55;;;;;;;4.43;3.00;;;6.10;99.90;;;;;;5062437;28;20035;-77
2022/11/28 02:12:33;;;;;;;7.20;4.32;;;6.10;99.90;;;;;;5064507;28;20044;-77
2022/11/28 02:15:24;;;;;;;9.23;3.90;;;6.10;99.90;;;;;;5064740;28;20025;-78
2022/11/28 02:18:29;;;;;;;9.60;4.50;;;6.10;99.90;;;;;;5059887;28;20037;-78
2022/11/28 02:21:07;;;;;;;6.45;4.47;;;6.10;99.90;;;;;;5003016;28;20073;-77
2022/11/28 02:23:51;;;;;;;7.50;3.67;;;6.10;99.90;;;;;;5061869;28;20029;-78
2022/11/28 02:26:41;;;;;;;9.00;4.20;;;6.10;99.90;;;;;;5048084;28;20033;-78
2022/11/28 02:29:40;;;;;;;6.90;4.20;;;6.20;99.90;;;;;;5057545;28;20047;-78
2022/11/28 02:32:28;;;;;;;7.00;4.25;;;6.20;99.90;;;;;;5056973;28;20037;-78
2022/11/28 02:35:14;;;;;;;6.07;4.28;;;6.20;99.90;;;;;;5051050;28;20021;-78
2022/11/28 02:38:03;;;;;;;7.30;4.32;;;6.20;99.90;;;;;;5060444;28;20442;-78
2022/11/28 02:40:43;;;;;;;9.43;3.67;;;6.20;99.90;;;;;;5054737;28;20048;-78
2022/11/28 02:43:39;;;;;;;5.55;3.45;;;6.30;99.90;;;;;;5061617;28;20032;-77
2022/11/28 02:46:11;;;;;;;5.10;3.63;;;6.40;99.90;;;;;;5054605;28;20033;-78
2022/11/28 02:48:42;;;;;;;4.60;3.65;;;6.40;99.90;;;;;;5060508;28;20115;-77
2022/11/28 02:51:41;;;;;;;4.72;3.72;;;6.30;99.90;;;;;;5061398;28;20024;-77
2022/11/28 02:54:10;;;;;;;9.45;3.95;;;6.30;99.90;;;;;;5056982;28;20044;-78
2022/11/28 02:56:36;;;;;;;10.40;4.60;;;6.20;99.90;;;;;;5057922;28;20087;-77
2022/11/28 02:59:02;;;;;;;8.75;5.07;;;6.20;99.90;;;;;;5059903;28;20513;-78
2022/11/28 03:01:34;;;;;;;9.00;5.13;;;6.20;99.90;;;;;;5057963;28;20043;-79
2022/11/28 03:04:32;;;;;;;7.20;4.82;;;6.20;99.90;;;;;;5059386;28;20398;-78
2022/11/28 03:07:13;;;;;;;7.47;5.43;;;6.10;99.90;;;;;;5057953;28;20066;-77
2022/11/28 03:10:10;;;;;;;13.48;5.72;;;6.10;99.90;;;;;;5058857;28;20443;-78
2022/11/28 03:12:50;;;;;;;8.07;5.25;;;6.10;99.90;;;;;;5060594;28;20029;-79
2022/11/28 03:15:20;;;;;;;8.43;5.45;;;6.00;99.90;;;;;;5061179;28;20031;-78
2022/11/28 03:18:19;;;;;;;9.50;5.63;;;6.10;99.90;;;;;;5054457;28;20035;-80
2022/11/28 03:20:46;;;;;;;12.07;6.15;;;6.10;99.90;;;;;;5054950;28;20487;-78
2022/11/28 03:23:31;;;;;;;9.23;5.35;;;6.10;99.90;;;;;;5067890;28;20051;-77
2022/11/28 03:26:35;;;;;;;7.15;5.10;;;6.10;99.90;;;;;;5060192;28;20082;-77
2022/11/28 03:29:12;;;;;;;8.57;5.35;;;6.00;99.90;;;;;;5036371;28;20531;-80
2022/11/28 03:31:50;;;;;;;6.45;5.03;;;6.00;99.90;;;;;;5061321;28;20028;-80
2022/11/28 03:34:20;;;;;;;10.95;5.45;;;6.10;99.90;;;;;;5055191;28;20020;-80
2022/11/28 03:36:52;;;;;;;11.18;4.90;;;6.00;99.90;;;;;;5058737;28;20074;-80
2022/11/28 03:39:22;;;;;;;8.95;5.10;;;6.00;99.90;;;;;;5060361;28;20033;-80
2022/11/28 03:41:58;;;;;;;7.70;4.32;;;6.00;99.90;;;;;;5067622;28;20040;-80
2022/11/28 03:44:34;;;;;;;8.68;5.18;;;6.00;99.90;;;;;;5054487;28;20389;-80
2022/11/28 03:47:03;;;;;;;11.02;5.55;;;6.00;99.90;;;;;;5067479;28;20097;-80
2022/11/28 03:49:37;;;;;;;8.13;4.70;;;6.00;99.90;;;;;;5065963;28;20033;-78
2022/11/28 03:52:06;;;;;;;6.05;4.30;;;6.00;99.90;;;;;;5063856;28;20044;-78
2022/11/28 03:54:47;;;;;;;8.60;5.03;;;6.10;99.90;;;;;;5065953;28;20097;-78
2022/11/28 03:57:31;;;;;;;8.55;3.97;;;6.00;99.90;;;;;;5066988;28;20469;-78
2022/11/28 03:59:58;;;;;;;8.77;4.65;;;6.00;99.90;;;;;;5062837;28;20033;-77
2022/11/28 04:02:44;;;;;;;6.75;4.63;;;6.10;99.90;;;;;;5063926;28;20029;-77
2022/11/28 04:05:18;;;;;;;8.00;4.32;;;6.00;99.90;;;;;;5066063;28;20087;-77
2022/11/28 04:07:53;;;;;;;5.35;4.00;;;6.00;99.90;;;;;;5065646;28;20025;-78
2022/11/28 04:10:27;;;;;;;8.83;4.67;;;6.00;99.90;;;;;;5057883;28;20028;-76
2022/11/28 04:12:59;;;;;;;11.73;5.18;;;6.00;99.90;;;;;;5060904;28;20295;-77
2022/11/28 04:15:52;;;;;;;10.23;5.53;;;6.10;99.90;;;;;;5062065;28;20033;-77
2022/11/28 04:18:17;;;;;;;9.65;5.38;;;6.10;99.90;;;;;;5062211;28;20056;-77
2022/11/28 04:21:09;;;;;;;5.90;4.50;;;6.10;99.90;;;;;;5060581;28;20512;-76
2022/11/28 04:23:39;;;;;;;17.00;5.43;;;6.00;99.90;;;;;;5059368;28;20079;-77
2022/11/28 04:26:19;;;;;;;7.60;5.22;;;6.00;99.90;;;;;;5060120;28;20036;-77
2022/11/28 04:28:47;;;;;;;6.93;5.07;;;6.00;99.90;;;;;;5057480;28;20024;-77
2022/11/28 04:31:16;;;;;;;6.70;4.25;;;6.00;99.90;;;;;;5057116;28;20099;-76
2022/11/28 04:33:48;;;;;;;7.88;5.38;;;6.00;99.90;;;;;;5061357;28;20433;-78
2022/11/28 04:36:17;;;;;;;7.45;4.10;;;6.00;99.90;;;;;;5061117;28;20036;-78
2022/11/28 04:38:53;;;;;;;7.80;4.82;;;6.00;99.90;;;;;;5061600;28;20054;-78
2022/11/28 04:41:27;;;;;;;5.97;4.30;;;6.00;99.90;;;;;;5056360;28;20056;-78
2022/11/28 04:44:07;;;;;;;6.40;4.25;;;6.00;99.90;;;;;;5059190;28;20045;-77
2022/11/28 04:46:43;;;;;;;7.30;4.68;;;5.90;99.90;;;;;;5059351;28;20362;-77
2022/11/28 04:49:10;;;;;;;9.27;4.00;;;5.90;99.90;;;;;;5059460;28;20451;-77
2022/11/28 04:51:51;;;;;;;5.70;3.80;;;6.00;99.90;;;;;;5060691;28;20020;-77
2022/11/28 04:55:01;;;;;;;5.32;3.88;;;6.00;99.90;;;;;;5060210;28;20059;-77
2022/11/28 04:57:34;;;;;;;10.15;4.55;;;5.90;99.90;;;;;;5043152;28;20048;-77
2022/11/28 05:00:11;;;;;;;6.50;4.22;;;6.00;99.90;;;;;;5056439;28;21248;-77
2022/11/28 05:02:39;;;;;;;8.80;4.68;;;6.00;99.90;;;;;;5058685;28;20116;-77
2022/11/28 05:05:15;;;;;;;7.15;4.53;;;5.90;99.90;;;;;;5058016;28;20025;-77
2022/11/28 05:07:40;;;;;;;7.35;4.13;;;5.80;99.90;;;;;;5061857;28;20402;-78
2022/11/28 05:10:09;;;;;;;8.23;4.93;;;5.80;99.90;;;;;;5063229;28;20039;-78
2022/11/28 05:12:34;;;;;;;4.72;3.88;;;5.70;99.90;;;;;;5057115;28;20052;-77
2022/11/28 05:15:00;;;;;;;8.48;4.65;;;5.70;99.90;;;;;;5063627;28;20016;-77
2022/11/28 05:17:26;;;;;;;7.85;4.47;;;5.70;99.90;;;;;;5057800;28;20493;-78
2022/11/28 05:19:51;;;;;;;6.30;4.57;;;5.70;99.90;;;;;;5062069;28;20025;-77
2022/11/28 05:22:17;;;;;;;7.05;4.32;;;5.70;99.90;;;;;;5054849;28;20036;-77
2022/11/28 05:24:42;;;;;;;5.90;4.03;;;5.70;99.90;;;;;;5058413;28;20489;-77
2022/11/28 05:27:10;;;;;;;5.25;3.72;;;5.70;99.90;;;;;;5059296;28;20074;-77
2022/11/28 05:29:36;;;;;;;4.97;4.00;;;5.60;99.90;;;;;;5062089;28;20081;-77
2022/11/28 05:32:02;;;;;;;6.18;4.00;;;5.60;99.90;;;;;;5060983;28;20470;-77
2022/11/28 05:34:29;;;;;;;5.32;3.90;;;5.70;99.90;;;;;;5059467;28;20035;-78
2022/11/28 05:36:56;;;;;;;5.60;3.58;;;5.60;99.90;;;;;;5056469;28;20108;-77
2022/11/28 05:39:22;;;;;;;8.43;5.47;;;5.50;99.90;;;;;;5058972;28;20330;-78
2022/11/28 05:41:48;;;;;;;8.43;6.18;;;5.40;99.90;;;;;;5054221;28;20048;-77
2022/11/28 05:44:13;;;;;;;9.38;5.75;;;5.40;99.90;;;;;;5060153;28;20287;-78
2022/11/28 05:46:39;;;;;;;9.48;6.43;;;5.40;99.90;;;;;;5058519;28;20036;-77
2022/11/28 05:49:05;;;;;;;11.88;7.57;;;5.40;99.90;;;;;;5058939;28;20029;-77
2022/11/28 05:51:30;;;;;;;7.88;5.82;;;5.40;99.90;;;;;;5061975;28;20104;-79
2022/11/28 05:53:56;;;;;;;13.70;7.30;;;5.40;99.90;;;;;;5062107;28;20050;-78
2022/11/28 05:56:24;;;;;;;13.35;7.55;;;5.40;99.90;;;;;;5057185;28;20034;-79
2022/11/28 05:58:52;;;;;;;12.55;7.80;;;5.50;99.90;;;;;;5060308;28;20070;-79
2022/11/28 06:01:24;;;;;;;10.25;6.38;;;5.50;99.90;;;;;;5059151;28;20041;-76
2022/11/28 06:03:51;;;;;;;11.73;7.40;;;5.50;99.90;;;;;;5060827;28;20484;-78
2022/11/28 06:06:19;;;;;;;13.20;7.93;;;5.40;99.90;;;;;;5056346;28;20488;-78
2022/11/28 06:08:46;;;;;;;16.23;7.03;;;5.40;99.90;;;;;;5058706;28;20036;-79
2022/11/28 06:11:13;;;;;;;11.13;7.13;;;5.50;99.90;;;;;;5054402;28;20029;-78
2022/11/28 06:13:39;;;;;;;14.85;7.45;;;5.50;99.90;;;;;;5056495;28;20098;-78
2022/11/28 06:16:10;;;;;;;13.63;6.93;;;5.50;99.90;;;;;;5059456;28;20036;-80
2022/11/28 06:18:36;;;;;;;10.32;6.20;;;5.40;99.90;;;;;;5063515;28;20551;-79
2022/11/28 06:21:06;;;;;;;13.43;7.72;;;5.40;99.90;;;;;;5058180;28;20051;-79
2022/11/28 06:23:32;;;;;;;11.57;7.53;;;5.40;99.90;;;;;;5059230;28;20435;-79
2022/11/28 06:26:02;;;;;;;11.80;7.40;;;5.40;99.90;;;;;;5055687;28;20029;-79
2022/11/28 06:28:27;;;;;;;11.23;7.43;;;5.40;99.90;;;;;;5057443;28;20032;-79
2022/11/28 06:30:54;;;;;;;12.82;7.80;;;5.40;99.90;;;;;;5054794;28;20025;-80
2022/11/28 06:33:20;;;;;;;10.32;7.22;;;5.40;99.90;;;;;;5058818;28;20119;-79
2022/11/28 06:35:45;;;;;;;13.00;7.55;;;5.40;99.90;;;;;;5053927;28;20609;-79
2022/11/28 06:38:11;;;;;;;10.57;7.18;;;5.40;99.90;;;;;;5060335;28;20024;-79
2022/11/28 06:40:38;;;;;;;13.70;8.60;;;5.30;99.90;;;;;;5062479;28;20128;-79
2022/11/28 06:43:05;;;;;;;12.48;8.05;;;5.40;99.90;;;;;;5062304;28;20036;-80
2022/11/28 06:45:32;;;;;;;13.60;6.93;;;5.30;99.90;;;;;;5057184;28;20025;-81
2022/11/28 06:47:58;;;;;;;11.18;7.38;;;5.30;99.90;;;;;;5058621;28;20051;-79
2022/11/28 06:50:24;;;;;;;11.00;7.75;;;5.30;99.90;;;;;;5056489;28;20040;-79
2022/11/28 06:52:50;;;;;;;12.35;7.95;;;5.30;99.90;;;;;;5067600;28;20085;-79
2022/11/28 06:55:16;;;;;;;19.83;7.57;;;5.40;99.90;;;;;;5057459;28;20466;-80
2022/11/28 06:57:42;;;;;;;13.30;8.05;;;5.40;99.90;;;;;;5058107;28;20048;-80
2022/11/28 07:00:08;;;;;;;14.10;7.90;;;5.40;99.90;;;;;;5057269;28;20028;-80
2022/11/28 07:02:34;;;;;;;9.52;6.55;;;5.40;99.90;;;;;;5061428;28;20037;-82
2022/11/28 07:05:00;;;;;;;11.57;7.47;;;5.40;99.90;;;;;;5056384;28;20508;-79
2022/11/28 07:07:25;;;;;;;13.85;7.47;;;5.40;99.90;;;;;;5057630;28;20035;-79
2022/11/28 07:09:51;;;;;;;11.38;6.90;;;5.40;99.90;;;;;;5065149;28;20033;-79
2022/11/28 07:12:16;;;;;;;15.27;7.15;;;5.40;99.90;;;;;;5062688;28;20081;-79
2022/11/28 07:14:42;;;;;;;12.27;7.38;;;5.40;99.90;;;;;;5057213;28;20041;-79
2022/11/28 07:17:08;;;;;;;12.13;7.65;;;5.50;99.90;;;;;;5063677;28;20029;-79
2022/11/28 07:19:34;;;;;;;10.02;6.60;;;5.40;99.90;;;;;;5063434;28;20090;-80
2022/11/28 07:22:00;;;;;;;12.68;7.18;;;5.50;99.90;;;;;;5059132;28;20557;-79
2022/11/28 07:24:26;;;;;;;10.98;6.50;;;5.50;99.90;;;;;;5057733;28;20052;-79
2022/11/28 07:26:52;;;;;;;8.77;6.25;;;5.50;99.90;;;;;;5059178;28;20024;-79
2022/11/28 07:29:18;;;;;;;8.00;6.15;;;5.50;99.90;;;;;;5055021;28;20480;-79
2022/11/28 07:31:44;;;;;;;9.32;5.78;;;5.50;99.90;;;;;;5055016;28;20032;-79
2022/11/28 07:34:10;;;;;;;14.32;6.25;;;5.60;99.90;;;;;;5058919;28;20021;-79
2022/11/28 07:36:36;;;;;;;12.90;6.57;;;5.60;99.90;;;;;;5057554;28;20024;-79
2022/11/28 07:39:05;;;;;;;12.18;6.05;;;5.70;99.90;;;;;;5060059;28;20147;-79
2022/11/28 07:41:31;;;;;;;8.98;5.63;;;5.80;99.90;;;;;;5060366;28;20468;-80
2022/11/28 07:43:58;;;;;;;11.60;6.50;;;5.70;99.90;;;;;;5060060;28;20056;-78
2022/11/28 07:46:25;;;;;;;12.18;6.57;;;5.80;99.90;;;;;;5061510;28;20029;-80
2022/11/28 07:48:51;;;;;;;40.38;18.40;;;5.80;99.90;;;;;;5062094;28;20028;-80
2022/11/28 07:51:23;;;;;;;8.68;5.30;;;5.90;99.90;;;;;;5057008;28;20036;-79
2022/11/28 07:53:52;;;;;;;11.07;6.20;;;5.90;99.90;;;;;;5059495;28;20386;-78
2022/11/28 07:56:22;;;;;;;9.00;6.57;;;5.90;99.90;;;;;;5057616;28;20084;-79
2022/11/28 07:58:48;;;;;;;9.80;6.28;;;5.90;99.90;;;;;;5054675;28;20072;-79
2022/11/28 08:01:24;;;;;;;12.20;6.43;;;5.90;99.90;;;;;;5063342;28;20115;-79
2022/11/28 08:03:51;;;;;;;7.25;5.80;;;5.90;99.90;;;;;;5059230;28;20493;-79
2022/11/28 08:06:19;;;;;;;9.43;5.47;;;5.80;99.90;;;;;;5056770;28;20121;-79
2022/11/28 08:08:49;;;;;;;8.40;5.72;;;5.70;99.90;;;;;;5062282;28;20073;-79
2022/11/28 08:11:17;;;;;;;7.07;5.03;;;5.70;99.90;;;;;;5060851;28;20024;-78
2022/11/28 08:13:45;;;;;;;12.13;6.50;;;5.70;99.90;;;;;;5058508;28;20082;-79
2022/11/28 08:16:14;;;;;;;13.02;6.18;;;5.60;99.90;;;;;;5056842;28;20033;-79
2022/11/28 08:18:39;;;;;;;6.80;5.32;;;5.60;99.90;;;;;;5058222;28;20036;-79
2022/11/28 08:21:20;;;;;;;14.85;5.55;;;5.60;99.90;;;;;;5061480;28;20041;-78
2022/11/28 08:23:46;;;;;;;8.85;5.55;;;5.60;99.90;;;;;;5061976;28;20033;-79
2022/11/28 08:26:14;;;;;;;6.85;4.55;;;5.70;99.90;;;;;;5055170;28;20063;-78
2022/11/28 08:28:40;;;;;;;8.55;4.68;;;5.80;99.90;;;;;;5058641;28;20510;-79
2022/11/28 08:31:15;;;;;;;8.75;4.18;;;5.90;99.90;;;;;;5061078;28;20032;-80
2022/11/28 08:33:41;;;;;;;8.25;3.90;;;5.90;99.90;;;;;;5062450;28;20082;-78
2022/11/28 08:36:09;;;;;;;4.55;3.22;;;6.00;99.90;;;;;;5059006;28;20028;-78
2022/11/28 08:38:36;;;;;;;5.55;3.63;;;6.00;99.90;;;;;;5057899;28;20040;-78
2022/11/28 08:41:07;;;;;;;5.22;3.88;;;6.10;99.90;;;;;;5060492;28;20116;-78
2022/11/28 08:43:33;;;;;;;5.50;3.67;;;6.10;99.90;;;;;;5056815;28;20033;-78
2022/11/28 08:46:00;;;;;;;4.93;3.10;;;6.20;99.90;;;;;;5060970;28;20047;-79
2022/11/28 08:48:26;;;;;;;6.22;3.88;;;6.20;99.90;;;;;;5061288;28;20029;-78
2022/11/28 08:50:51;;;;;;;6.20;4.15;;;6.20;99.90;;;;;;5051248;28;20031;-78
2022/11/28 08:53:17;;;;;;;6.18;3.65;;;6.30;99.90;;;;;;5052792;28;20035;-78
2022/11/28 08:55:44;;;;;;;9.30;4.50;;;6.30;99.90;;;;;;5061000;28;20163;-78
2022/11/28 08:58:10;;;;;;;6.50;4.18;;;6.30;99.90;;;;;;5057894;28;20473;-78
2022/11/28 09:00:36;;;;;;;7.93;4.70;;;6.30;99.90;;;;;;5060150;28;20131;-78
2022/11/28 09:03:03;;;;;;;6.30;4.63;;;6.20;99.90;;;;;;5053990;28;20119;-78
2022/11/28 09:05:29;;;;;;;7.80;5.03;;;6.30;99.90;;;;;;5058578;28;20008;-78
2022/11/28 09:07:55;;;;;;;6.90;4.55;;;6.20;99.90;;;;;;5056404;28;20025;-79
2022/11/28 09:10:22;;;;;;;9.63;5.45;;;6.20;99.90;;;;;;5061844;28;20419;-78
2022/11/28 09:12:47;;;;;;;10.35;5.35;;;6.20;99.90;;;;;;5056950;28;20040;-78
2022/11/28 09:15:13;;;;;;;8.65;5.20;;;6.20;99.90;;;;;;5059424;28;20024;-79
2022/11/28 09:17:39;;;;;;;10.68;5.30;;;6.20;99.90;;;;;;5059639;28;20044;-78
2022/11/28 09:20:06;;;;;;;8.70;4.72;;;6.30;99.90;;;;;;5057075;28;20036;-79
2022/11/28 09:22:32;;;;;;;12.10;4.43;;;6.30;99.90;;;;;;5055470;28;20029;-79
2022/11/28 09:24:57;;;;;;;10.57;5.70;;;6.40;99.90;;;;;;5056606;28;20127;-78
2022/11/28 09:27:23;;;;;;;8.65;6.00;;;6.50;99.90;;;;;;5065730;28;20025;-78
2022/11/28 09:29:49;;;;;;;15.48;6.78;;;6.50;99.90;;;;;;5062897;28;20032;-79
2022/11/28 09:32:14;;;;;;;13.60;8.23;;;6.50;99.90;;;;;;5059956;28;20533;-79
2022/11/28 09:34:40;;;;;;;13.07;7.30;;;6.40;99.90;;;;;;5056290;28;20021;-78
2022/11/28 09:37:05;;;;;;;10.27;6.53;;;6.40;99.90;;;;;;5056568;28;20020;-78
2022/11/28 09:39:31;;;;;;;12.70;5.93;;;6.40;99.90;;;;;;5056831;28;20028;-79
2022/11/28 09:42:13;;;;;;;9.73;5.60;;;6.30;99.90;;;;;;5052922;28;20465;-78
2022/11/28 09:45:02;;;;;;;11.93;7.32;;;6.30;99.90;;;;;;5055418;28;20024;-78
2022/11/28 09:47:30;;;;;;;8.55;5.55;;;6.30;99.90;;;;;;5061152;28;20020;-78
2022/11/28 09:50:01;;;;;;;16.45;7.22;;;6.30;99.90;;;;;;5055789;28;20062;-78
2022/11/28 09:52:40;;;;;;;10.27;6.43;;;6.30;99.90;;;;;;5057463;28;20078;-78
2022/11/28 09:55:24;;;;;;;10.55;5.40;;;6.30;99.90;;;;;;5054621;28;20032;-78
2022/11/28 09:57:51;;;;;;;9.15;5.85;;;6.30;99.90;;;;;;5059315;28;20052;-79
2022/11/28 10:00:41;;;;;;;11.88;5.95;;;6.30;99.90;;;;;;5057228;28;22015;-78
2022/11/28 10:03:15;;;;;;;8.57;5.30;;;6.30;99.90;;;;;;5054679;28;20033;-79
2022/11/28 10:06:05;;;;;;;7.95;5.03;;;6.40;99.90;;;;;;5064132;28;20020;-78
2022/11/28 10:08:56;;;;;;;9.00;4.30;;;6.40;99.90;;;;;;5057774;28;20041;-78
2022/11/28 10:11:29;;;;;;;5.97;3.80;;;6.40;99.90;;;;;;5061571;28;20094;-79
2022/11/28 10:14:10;;;;;;;11.73;6.63;;;6.50;99.90;;;;;;5055296;28;20024;-78
2022/11/28 10:17:00;;;;;;;19.85;8.98;;;6.60;99.90;;;;;;5055511;28;20128;-78
2022/11/28 10:19:39;;;;;;;13.60;7.35;;;6.60;99.90;;;;;;5056367;28;20024;-78
2022/11/28 10:22:12;;;;;;;9.93;6.38;;;6.60;99.90;;;;;;5057506;28;20044;-78
2022/11/28 10:24:47;;;;;;;8.98;5.90;;;6.60;99.90;;;;;;5059873;28;20017;-78
2022/11/28 10:27:14;;;;;;;10.43;6.15;;;6.60;99.90;;;;;;5057015;28;20025;-78
2022/11/28 10:29:56;;;;;;;8.35;5.07;;;6.60;99.90;;;;;;5060656;28;20040;-78
2022/11/28 10:32:30;;;;;;;6.38;4.55;;;6.60;99.90;;;;;;5059159;28;20032;-78
2022/11/28 10:35:00;;;;;;;5.13;3.67;;;6.60;99.90;;;;;;5052895;28;20090;-78
2022/11/28 10:37:28;;;;;;;8.05;4.07;;;6.60;99.90;;;;;;5058221;28;20078;-78
2022/11/28 10:39:55;;;;;;;5.30;3.80;;;6.60;99.90;;;;;;5058411;28;20369;-79
2022/11/28 10:42:42;;;;;;;8.88;4.32;;;6.60;99.90;;;;;;5057496;28;20028;-77
2022/11/28 10:45:16;;;;;;;4.57;3.63;;;6.60;99.90;;;;;;5059457;28;20021;-78
2022/11/28 10:48:36;;;;;;;12.88;7.90;;;6.60;99.90;;;;;;5058225;28;20031;-79
2022/11/28 10:51:17;;;;;;;10.52;7.07;;;6.70;99.90;;;;;;5017176;28;20033;-79
2022/11/28 10:54:09;;;;;;;9.95;6.88;;;6.80;99.90;;;;;;5017959;28;20040;-78
2022/11/28 10:56:49;;;;;;;14.05;8.63;;;6.80;99.90;;;;;;5040654;28;20039;-78
2022/11/28 10:59:27;;;;;;;14.77;8.43;;;6.90;99.90;;;;;;5053319;28;20055;-78
2022/11/28 11:01:54;;;;;;;12.90;7.65;;;6.90;99.90;;;;;;5059690;28;20089;-78
2022/11/28 11:04:25;;;;;;;26.52;13.23;;;6.80;99.90;;;;;;5052380;28;20124;-78
2022/11/28 11:07:38;;;;;;;46.63;26.58;;;6.80;99.90;;;;;;5060781;28;20031;-78
2022/11/28 11:10:16;;;;;;;56.35;33.20;;;6.80;99.90;;;;;;5052391;28;20111;-78
2022/11/28 11:12:43;;;;;;;46.92;28.60;;;6.80;99.90;;;;;;5052615;28;20013;-78
2022/11/28 11:15:28;;;;;;;39.72;24.10;;;6.80;99.90;;;;;;5059718;28;20030;-78
2022/11/28 11:17:54;;;;;;;39.58;22.92;;;6.80;99.90;;;;;;5061083;28;20581;-78
2022/11/28 11:20:36;;;;;;;32.58;19.08;;;6.70;99.90;;;;;;5050524;28;20025;-78
2022/11/28 11:23:14;;;;;;;27.60;14.85;;;6.70;99.90;;;;;;5051706;28;20636;-78
2022/11/28 11:25:57;;;;;;;22.02;13.50;;;6.70;99.90;;;;;;5051545;28;20029;-78
2022/11/28 11:28:44;;;;;;;18.77;11.98;;;6.70;99.90;;;;;;5062059;28;20120;-78
2022/11/28 11:31:23;;;;;;;21.35;11.30;;;6.70;99.90;;;;;;5056476;28;20107;-79
2022/11/28 11:33:52;;;;;;;18.65;11.23;;;6.70;99.90;;;;;;5066787;28;20020;-78
2022/11/28 11:36:35;;;;;;;14.80;8.85;;;6.80;99.90;;;;;;5059985;28;20107;-78
2022/11/28 11:39:12;;;;;;;12.52;7.43;;;6.80;99.90;;;;;;5059428;28;20083;-77
2022/11/28 11:41:43;;;;;;;9.88;6.35;;;6.80;99.90;;;;;;5059244;28;20043;-78
2022/11/28 11:44:19;;;;;;;8.82;5.70;;;6.80;99.90;;;;;;5058387;28;20079;-78
2022/11/28 11:47:04;;;;;;;6.32;4.18;;;6.90;99.90;;;;;;5057860;28;20546;-77
2022/11/28 11:49:40;;;;;;;9.57;4.78;;;6.90;99.90;;;;;;5064141;28;20028;-78
2022/11/28 11:52:14;;;;;;;15.00;4.50;;;6.90;99.90;;;;;;5058640;28;20040;-78
2022/11/28 11:54:52;;;;;;;5.55;3.80;;;6.90;99.90;;;;;;5059818;28;20023;-78
2022/11/28 11:57:21;;;;;;;5.78;4.30;;;6.90;99.90;;;;;;5059507;28;20039;-78
2022/11/28 11:59:56;;;;;;;10.70;4.45;;;6.90;99.90;;;;;;5060140;28;20021;-78
2022/11/28 12:02:36;;;;;;;7.27;4.23;;;7.00;99.90;;;;;;5057990;28;20383;-78
2022/11/28 12:05:09;;;;;;;8.65;3.90;;;7.00;99.90;;;;;;5060993;28;20457;-78
2022/11/28 12:07:47;;;;;;;6.18;3.97;;;7.00;99.90;;;;;;5054528;28;20095;-78
2022/11/28 12:10:18;;;;;;;9.57;4.50;;;7.00;99.90;;;;;;5057507;28;20377;-78
2022/11/28 12:12:43;;;;;;;16.42;7.75;;;7.00;99.90;;;;;;5058818;28;20067;-78
2022/11/28 12:15:39;;;;;;;7.82;4.82;;;7.10;99.90;;;;;;5061744;28;20620;-78
2022/11/28 12:18:07;;;;;;;6.80;4.65;;;7.10;99.90;;;;;;5054999;28;20505;-78
2022/11/28 12:20:33;;;;;;;6.00;4.30;;;7.10;99.90;;;;;;5060918;28;20106;-77
2022/11/28 12:23:10;;;;;;;6.68;4.75;;;7.10;99.90;;;;;;5057994;28;20553;-77
2022/11/28 12:25:50;;;;;;;8.98;5.57;;;7.10;99.90;;;;;;5051741;28;20116;-79
2022/11/28 12:28:47;;;;;;;9.07;4.82;;;7.10;99.90;;;;;;5055499;28;20021;-77
2022/11/28 12:31:35;;;;;;;8.05;4.78;;;7.10;99.90;;;;;;5059225;28;20025;-77
2022/11/28 12:34:07;;;;;;;7.97;4.90;;;7.10;99.90;;;;;;5057362;28;20048;-77
2022/11/28 12:36:36;;;;;;;7.65;4.30;;;7.10;99.90;;;;;;5057418;28;20422;-78
2022/11/28 12:39:17;;;;;;;10.48;5.60;;;7.10;99.90;;;;;;5059274;28;20479;-78
2022/11/28 12:42:04;;;;;;;10.82;5.82;;;7.10;99.90;;;;;;5062466;28;20047;-78
2022/11/28 12:44:33;;;;;;;8.25;5.53;;;7.10;99.90;;;;;;5060149;28;20303;-78
2022/11/28 12:47:16;;;;;;;7.53;4.72;;;7.20;99.90;;;;;;5061284;28;20025;-78
2022/11/28 12:50:04;;;;;;;8.43;4.97;;;7.20;99.90;;;;;;5057249;28;20258;-78
2022/11/28 12:52:55;;;;;;;7.25;4.32;;;7.20;99.90;;;;;;5060351;28;20033;-78
2022/11/28 12:55:46;;;;;;;8.68;4.95;;;7.20;99.90;;;;;;5056196;28;20025;-77
2022/11/28 12:58:30;;;;;;;7.07;4.63;;;7.30;99.90;;;;;;5037789;28;20129;-78
2022/11/28 13:01:12;;;;;;;8.30;4.60;;;7.20;99.90;;;;;;5053281;28;20153;-78
2022/11/28 13:04:00;;;;;;;7.70;4.97;;;7.30;99.90;;;;;;5056514;28;20541;-78
2022/11/28 13:06:32;;;;;;;7.47;4.15;;;7.30;99.90;;;;;;5053833;28;21902;-77
2022/11/28 13:09:27;;;;;;;10.65;4.30;;;7.30;99.90;;;;;;5054427;28;20024;-77
2022/11/28 13:12:18;;;;;;;7.32;3.65;;;7.30;99.90;;;;;;5055770;28;20025;-78
2022/11/28 13:14:53;;;;;;;9.98;4.25;;;7.30;99.90;;;;;;5053969;28;20070;-78
2022/11/28 13:17:19;;;;;;;7.38;4.07;;;7.30;99.90;;;;;;5057545;28;20116;-77
2022/11/28 13:20:14;;;;;;;10.98;4.25;;;7.30;99.90;;;;;;5055172;28;20123;-78
2022/11/28 13:23:05;;;;;;;9.98;4.10;;;7.30;99.90;;;;;;5048995;28;20547;-78